createdAt,value
2022-08-03T00:01:49.566Z,20.48
2022-08-03T00:04:16.155Z,20.50
2022-08-03T00:06:42.917Z,20.33
2022-08-03T00:09:09.422Z,20.22
2022-08-03T00:11:36.681Z,20.31
2022-08-03T00:14:04.976Z,20.26
2022-08-03T00:16:31.665Z,20.39
2022-08-03T00:18:58.117Z,20.30
2022-08-03T00:21:27.551Z,20.33
2022-08-03T00:23:54.295Z,20.34
2022-08-03T00:26:21.348Z,20.09
2022-08-03T00:28:48.698Z,20.09
2022-08-03T00:31:15.330Z,20.01
2022-08-03T00:33:59.174Z,20.15
2022-08-03T00:36:28.303Z,20.08
2022-08-03T00:38:55.909Z,19.92
2022-08-03T00:41:22.801Z,19.75
2022-08-03T00:43:49.322Z,19.75
2022-08-03T00:46:21.045Z,19.63
2022-08-03T00:48:52.122Z,19.42
2022-08-03T00:51:20.108Z,19.33
2022-08-03T00:53:46.639Z,19.46
2022-08-03T00:56:15.120Z,19.41
2022-08-03T00:58:41.862Z,19.37
2022-08-03T01:01:08.349Z,19.42
2022-08-03T01:03:34.880Z,19.59
2022-08-03T01:06:20.229Z,19.29
2022-08-03T01:08:54.854Z,19.18
2022-08-03T01:11:32.006Z,19.09
2022-08-03T01:14:18.588Z,19.23
2022-08-03T01:16:55.969Z,19.15
2022-08-03T01:19:22.360Z,19.28
2022-08-03T01:22:26.678Z,19.39
2022-08-03T01:25:21.405Z,19.37
2022-08-03T01:27:58.550Z,19.21
2022-08-03T01:30:31.989Z,19.22
2022-08-03T01:33:07.126Z,19.08
2022-08-03T01:35:39.214Z,18.89
2022-08-03T01:38:14.322Z,18.96
2022-08-03T01:40:42.258Z,18.97
2022-08-03T01:43:11.559Z,18.88
2022-08-03T01:45:38.602Z,18.97
2022-08-03T01:48:05.439Z,18.98
2022-08-03T01:50:34.815Z,19.00
2022-08-03T01:53:01.896Z,18.98
2022-08-03T01:55:29.715Z,19.02
2022-08-03T01:58:05.469Z,19.02
2022-08-03T02:00:36.172Z,18.98
2022-08-03T02:03:05.966Z,18.67
2022-08-03T02:05:34.033Z,18.74
2022-08-03T02:08:02.216Z,18.67
2022-08-03T02:10:35.556Z,18.65
2022-08-03T02:13:05.625Z,18.53
2022-08-03T02:15:32.891Z,18.64
2022-08-03T02:18:00.383Z,18.64
2022-08-03T02:20:27.343Z,18.69
2022-08-03T02:22:53.944Z,18.48
2022-08-03T02:25:20.526Z,18.41
2022-08-03T02:27:53.061Z,18.51
2022-08-03T02:30:20.655Z,18.53
2022-08-03T02:32:52.161Z,18.59
2022-08-03T02:35:21.210Z,18.46
2022-08-03T02:37:52.044Z,18.49
2022-08-03T02:40:20.508Z,18.48
2022-08-03T02:42:50.231Z,18.40
2022-08-03T02:45:17.125Z,18.15
2022-08-03T02:47:53.477Z,18.15
2022-08-03T02:50:22.269Z,18.26
2022-08-03T02:52:49.939Z,18.13
2022-08-03T02:55:18.262Z,18.15
2022-08-03T02:57:45.029Z,18.13
2022-08-03T03:00:12.826Z,17.90
2022-08-03T03:02:46.318Z,18.00
2022-08-03T03:05:54.450Z,18.06
2022-08-03T03:07:59.707Z,18.19
2022-08-03T03:10:27.995Z,18.14
2022-08-03T03:12:58.563Z,18.04
2022-08-03T03:15:26.922Z,17.76
2022-08-03T03:17:53.795Z,17.93
2022-08-03T03:20:29.620Z,17.96
2022-08-03T03:22:58.875Z,17.99
2022-08-03T03:25:25.436Z,18.01
2022-08-03T03:27:52.166Z,18.13
2022-08-03T03:30:18.907Z,18.11
2022-08-03T03:32:45.399Z,18.03
2022-08-03T03:35:13.117Z,17.93
2022-08-03T03:37:39.936Z,17.84
2022-08-03T03:40:08.885Z,17.66
2022-08-03T03:42:35.518Z,17.70
2022-08-03T03:45:08.916Z,17.59
2022-08-03T03:47:35.612Z,17.69
2022-08-03T03:50:03.923Z,17.73
2022-08-03T03:52:32.146Z,17.77
2022-08-03T03:55:01.077Z,17.75
2022-08-03T03:57:28.202Z,17.71
2022-08-03T03:59:54.731Z,17.58
2022-08-03T04:02:21.324Z,17.56
2022-08-03T04:05:06.289Z,17.58
2022-08-03T04:07:58.892Z,17.49
2022-08-03T04:10:47.454Z,17.54
2022-08-03T04:13:15.976Z,17.48
2022-08-03T04:15:42.887Z,17.55
2022-08-03T04:18:12.610Z,17.50
2022-08-03T04:20:40.892Z,17.61
2022-08-03T04:23:12.778Z,17.63
2022-08-03T04:25:44.689Z,17.59
2022-08-03T04:28:30.899Z,17.66
2022-08-03T04:30:59.793Z,17.41
2022-08-03T04:33:29.311Z,17.20
2022-08-03T04:36:02.557Z,17.27
2022-08-03T04:38:31.698Z,17.32
2022-08-03T04:40:59.408Z,17.38
2022-08-03T04:43:26.998Z,17.33
2022-08-03T04:45:54.564Z,17.48
2022-08-03T04:48:21.191Z,17.58
2022-08-03T04:50:50.367Z,17.63
2022-08-03T04:53:18.061Z,17.56
2022-08-03T04:55:45.985Z,17.51
2022-08-03T04:58:12.655Z,17.52
2022-08-03T05:00:39.322Z,17.65
2022-08-03T05:03:23.741Z,17.77
2022-08-03T05:05:52.670Z,17.80
2022-08-03T05:08:20.761Z,17.86
2022-08-03T05:10:55.185Z,17.80
2022-08-03T05:13:21.624Z,17.52
2022-08-03T05:15:48.144Z,17.64
2022-08-03T05:18:14.692Z,17.56
2022-08-03T05:20:41.521Z,17.66
2022-08-03T05:23:08.033Z,18.26
2022-08-03T05:25:34.509Z,18.76
2022-08-03T05:28:01.308Z,18.95
2022-08-03T05:30:34.194Z,19.16
2022-08-03T05:33:02.349Z,19.35
2022-08-03T05:35:56.038Z,19.79
2022-08-03T05:38:24.282Z,20.15
2022-08-03T05:40:57.552Z,20.48
2022-08-03T05:43:41.659Z,21.14
2022-08-03T05:46:12.262Z,21.36
2022-08-03T05:48:39.776Z,21.67
2022-08-03T05:51:07.739Z,21.86
2022-08-03T05:53:34.750Z,22.17
2022-08-03T05:56:13.283Z,22.04
2022-08-03T05:58:40.055Z,22.40
2022-08-03T06:01:06.573Z,22.89
2022-08-03T06:03:35.922Z,23.05
2022-08-03T06:06:02.436Z,23.19
2022-08-03T06:08:28.890Z,23.52
2022-08-03T06:10:55.364Z,23.71
2022-08-03T06:13:22.068Z,24.55
2022-08-03T06:15:48.527Z,25.01
2022-08-03T06:18:15.019Z,25.23
2022-08-03T06:20:41.618Z,25.16
2022-08-03T06:23:08.092Z,24.89
2022-08-03T06:25:42.822Z,25.77
2022-08-03T06:28:19.087Z,25.86
2022-08-03T06:30:55.610Z,25.48
2022-08-03T06:33:22.080Z,24.84
2022-08-03T06:35:48.583Z,25.67
2022-08-03T06:38:15.205Z,26.31
2022-08-03T06:40:42.047Z,26.07
2022-08-03T06:43:12.558Z,26.16
2022-08-03T06:45:39.382Z,26.37
2022-08-03T06:48:08.000Z,26.96
2022-08-03T06:50:35.436Z,26.62
2022-08-03T06:53:02.309Z,26.89
2022-08-03T06:55:28.775Z,27.00
2022-08-03T06:57:55.347Z,27.28
2022-08-03T07:00:26.559Z,27.58
2022-08-03T07:02:57.936Z,27.22
2022-08-03T07:05:24.940Z,26.84
2022-08-03T07:07:51.428Z,27.06
2022-08-03T07:10:17.869Z,27.38
2022-08-03T07:12:52.680Z,27.23
2022-08-03T07:15:54.477Z,26.73
2022-08-03T07:18:10.054Z,27.15
2022-08-03T07:20:36.702Z,26.85
2022-08-03T07:23:03.216Z,26.42
2022-08-03T07:25:29.678Z,27.36
2022-08-03T07:27:56.299Z,27.40
2022-08-03T07:30:23.316Z,27.67
2022-08-03T07:32:50.766Z,27.98
2022-08-03T07:35:25.117Z,28.03
2022-08-03T07:37:54.450Z,27.72
2022-08-03T07:40:22.202Z,28.65
2022-08-03T07:42:48.805Z,28.35
2022-08-03T07:45:23.262Z,28.86
2022-08-03T07:47:53.316Z,28.58
2022-08-03T07:50:20.291Z,28.39
2022-08-03T07:52:50.234Z,28.89
2022-08-03T07:55:19.001Z,29.20
2022-08-03T07:57:45.712Z,29.20
2022-08-03T08:00:19.129Z,29.20
2022-08-03T08:02:48.069Z,28.69
2022-08-03T08:05:14.575Z,28.80
2022-08-03T08:07:41.266Z,29.58
2022-08-03T08:10:10.055Z,29.59
2022-08-03T08:12:37.637Z,29.85
2022-08-03T08:15:04.871Z,29.68
2022-08-03T08:17:31.326Z,28.70
2022-08-03T08:19:57.936Z,29.47
2022-08-03T08:22:30.609Z,29.07
2022-08-03T08:24:59.459Z,29.48
2022-08-03T08:27:26.161Z,29.84
2022-08-03T08:29:56.312Z,29.52
2022-08-03T08:32:25.335Z,29.42
2022-08-03T08:34:51.898Z,29.34
2022-08-03T08:37:18.411Z,29.84
2022-08-03T08:39:44.924Z,30.17
2022-08-03T08:42:11.746Z,30.20
2022-08-03T08:44:38.283Z,30.47
2022-08-03T08:47:04.951Z,30.52
2022-08-03T08:49:32.740Z,30.33
2022-08-03T08:52:01.058Z,30.05
2022-08-03T08:54:29.681Z,29.84
2022-08-03T08:56:57.340Z,29.76
2022-08-03T08:59:24.386Z,29.45
2022-08-03T09:01:50.853Z,29.76
2022-08-03T09:04:17.598Z,29.81
2022-08-03T09:06:58.572Z,30.32
2022-08-03T09:10:12.344Z,30.40
2022-08-03T09:12:40.631Z,30.67
2022-08-03T09:15:23.948Z,30.33
2022-08-03T09:17:51.962Z,30.80
2022-08-03T09:20:19.794Z,31.13
2022-08-03T09:23:19.029Z,31.27
2022-08-03T09:25:57.854Z,31.36
2022-08-03T09:29:00.204Z,31.59
2022-08-03T09:31:20.429Z,31.68
2022-08-03T09:33:48.151Z,31.88
2022-08-03T09:36:39.468Z,31.95
2022-08-03T09:39:10.857Z,32.08
2022-08-03T09:41:41.367Z,31.61
2022-08-03T09:44:08.648Z,31.84
2022-08-03T09:46:53.309Z,32.14
2022-08-03T09:49:19.929Z,32.23
2022-08-03T09:52:32.451Z,32.20
2022-08-03T09:54:34.146Z,32.26
2022-08-03T09:57:00.856Z,32.24
2022-08-03T09:59:29.000Z,32.04
2022-08-03T10:01:56.855Z,32.60
2022-08-03T10:04:24.143Z,32.80
2022-08-03T10:07:08.330Z,33.00
2022-08-03T10:09:35.686Z,33.01
2022-08-03T10:12:10.466Z,32.78
2022-08-03T10:14:38.934Z,33.15
2022-08-03T10:17:05.648Z,32.46
2022-08-03T10:19:33.276Z,33.07
2022-08-03T10:22:30.256Z,33.16
2022-08-03T10:25:07.768Z,33.01
2022-08-03T10:27:37.153Z,33.00
2022-08-03T10:30:06.321Z,32.66
2022-08-03T10:32:41.031Z,32.63
2022-08-03T10:35:23.350Z,32.67
2022-08-03T10:37:57.209Z,32.82
2022-08-03T10:40:46.839Z,33.07
2022-08-03T10:43:16.332Z,33.62
2022-08-03T10:45:43.907Z,33.38
2022-08-03T10:48:10.523Z,32.98
2022-08-03T10:50:37.355Z,33.00
2022-08-03T10:53:08.582Z,33.57
2022-08-03T10:56:00.230Z,33.84
2022-08-03T10:58:37.406Z,34.20
2022-08-03T11:01:59.813Z,33.82
2022-08-03T11:04:29.201Z,33.63
2022-08-03T11:07:16.002Z,33.97
2022-08-03T11:09:44.816Z,33.94
2022-08-03T11:12:40.934Z,34.00
2022-08-03T11:15:08.715Z,34.28
2022-08-03T11:17:46.472Z,34.42
2022-08-03T11:20:57.549Z,33.83
2022-08-03T11:24:05.458Z,34.37
2022-08-03T11:26:33.663Z,34.04
2022-08-03T11:29:34.234Z,34.28
2022-08-03T11:32:00.791Z,34.63
2022-08-03T11:34:27.365Z,34.81
2022-08-03T11:37:20.521Z,34.79
2022-08-03T11:39:51.783Z,34.67
2022-08-03T11:42:24.346Z,34.89
2022-08-03T11:44:52.552Z,34.86
2022-08-03T11:47:21.046Z,35.13
2022-08-03T11:49:48.836Z,35.30
2022-08-03T11:52:16.669Z,35.33
2022-08-03T11:54:43.654Z,35.29
2022-08-03T11:57:10.253Z,35.46
2022-08-03T11:59:38.775Z,35.28
2022-08-03T12:02:11.158Z,35.22
2022-08-03T12:04:54.089Z,35.18
2022-08-03T12:08:02.338Z,34.89
2022-08-03T12:10:12.756Z,35.36
2022-08-03T12:12:43.354Z,35.23
2022-08-03T12:15:12.965Z,34.90
2022-08-03T12:17:41.080Z,35.31
2022-08-03T12:20:09.977Z,35.45
2022-08-03T12:22:39.261Z,35.31
2022-08-03T12:25:09.769Z,35.57
2022-08-03T12:27:36.965Z,35.65
2022-08-03T12:30:04.460Z,35.54
2022-08-03T12:32:31.060Z,35.56
2022-08-03T12:35:00.825Z,35.82
2022-08-03T12:37:28.339Z,35.89
2022-08-03T12:40:00.950Z,35.88
2022-08-03T12:42:36.553Z,35.49
2022-08-03T12:45:22.433Z,35.17
2022-08-03T12:47:57.223Z,34.44
2022-08-03T12:50:31.429Z,34.66
2022-08-03T12:53:03.116Z,35.30
2022-08-03T12:55:56.645Z,35.02
2022-08-03T12:58:35.604Z,34.86
2022-08-03T13:01:09.728Z,34.97
2022-08-03T13:03:49.814Z,35.04
2022-08-03T13:06:25.420Z,35.46
2022-08-03T13:09:03.811Z,35.17
2022-08-03T13:11:57.584Z,35.55
2022-08-03T13:14:19.574Z,34.47
2022-08-03T13:16:47.318Z,35.12
2022-08-03T13:19:15.610Z,35.36
2022-08-03T13:21:53.800Z,35.45
2022-08-03T13:24:29.693Z,35.76
2022-08-03T13:26:57.318Z,35.97
2022-08-03T13:29:23.788Z,36.03
2022-08-03T13:31:51.206Z,36.18
2022-08-03T13:34:23.211Z,36.38
2022-08-03T13:37:08.333Z,36.22
2022-08-03T13:39:35.635Z,36.13
2022-08-03T13:42:22.122Z,36.52
2022-08-03T13:44:48.568Z,36.63
2022-08-03T13:47:15.034Z,36.66
2022-08-03T13:49:42.071Z,36.68
2022-08-03T13:52:21.097Z,36.72
2022-08-03T13:54:47.744Z,36.39
2022-08-03T13:58:05.099Z,36.12
2022-08-03T14:00:02.807Z,36.51
2022-08-03T14:02:29.535Z,36.44
2022-08-03T14:04:56.136Z,36.50
2022-08-03T14:07:23.231Z,36.46
2022-08-03T14:09:49.782Z,35.69
2022-08-03T14:12:16.264Z,36.33
2022-08-03T14:14:42.749Z,36.46
2022-08-03T14:17:09.256Z,36.14
2022-08-03T14:19:52.622Z,35.84
2022-08-03T14:22:20.270Z,35.59
2022-08-03T14:24:46.735Z,35.65
2022-08-03T14:27:13.207Z,35.68
2022-08-03T14:29:40.873Z,35.74
2022-08-03T14:32:11.399Z,35.22
2022-08-03T14:34:39.353Z,35.48
2022-08-03T14:37:05.903Z,35.73
2022-08-03T14:42:20.413Z,35.93
2022-08-03T14:44:47.344Z,35.86
2022-08-03T14:47:14.221Z,35.95
2022-08-03T14:50:31.257Z,36.10
2022-08-03T14:52:27.232Z,36.26
2022-08-03T14:54:53.725Z,36.49
2022-08-03T14:57:20.389Z,36.73
2022-08-03T14:59:55.748Z,36.69
2022-08-03T15:02:24.538Z,36.57
2022-08-03T15:04:51.799Z,36.41
2022-08-03T15:07:18.596Z,36.59
2022-08-03T15:09:45.458Z,36.59
2022-08-03T15:12:11.927Z,36.41
2022-08-03T15:14:39.003Z,36.56
2022-08-03T15:17:06.138Z,36.32
2022-08-03T15:20:00.301Z,35.96
2022-08-03T15:22:20.723Z,36.03
2022-08-03T15:24:51.544Z,36.24
2022-08-03T15:27:18.161Z,35.46
2022-08-03T15:30:05.082Z,35.88
2022-08-03T15:32:31.254Z,35.68
2022-08-03T15:34:57.699Z,35.86
2022-08-03T15:37:25.655Z,35.38
2022-08-03T15:39:58.727Z,35.56
2022-08-03T15:42:28.094Z,35.81
2022-08-03T15:44:54.850Z,35.97
2022-08-03T15:47:21.669Z,35.83
2022-08-03T15:49:48.454Z,35.77
2022-08-03T15:52:14.928Z,35.57
2022-08-03T15:54:41.405Z,35.78
2022-08-03T15:57:07.948Z,35.36
2022-08-03T15:59:34.418Z,35.16
2022-08-03T16:02:00.973Z,35.37
2022-08-03T16:04:27.535Z,35.36
2022-08-03T16:06:54.098Z,35.54
2022-08-03T16:09:23.964Z,35.79
2022-08-03T16:12:16.383Z,35.40
2022-08-03T16:14:53.386Z,35.10
2022-08-03T16:17:21.492Z,35.23
2022-08-03T16:19:48.260Z,35.32
2022-08-03T16:22:14.752Z,35.57
2022-08-03T16:24:41.405Z,35.45
2022-08-03T16:27:17.668Z,35.23
2022-08-03T16:29:54.683Z,35.10
2022-08-03T16:32:21.243Z,35.20
2022-08-03T16:34:48.194Z,35.62
2022-08-03T16:37:37.605Z,35.42
2022-08-03T16:40:02.344Z,35.51
2022-08-03T16:42:28.881Z,35.53
2022-08-03T16:44:55.356Z,35.49
2022-08-03T16:47:22.801Z,35.22
2022-08-03T16:49:54.779Z,35.38
2022-08-03T16:52:23.092Z,35.46
2022-08-03T16:54:50.575Z,35.47
2022-08-03T16:57:55.855Z,35.50
2022-08-03T17:00:06.884Z,35.28
2022-08-03T17:02:33.470Z,35.12
2022-08-03T17:05:03.270Z,34.99
2022-08-03T17:07:30.542Z,35.07
2022-08-03T17:09:57.428Z,35.20
2022-08-03T17:12:26.907Z,35.14
2022-08-03T17:14:53.966Z,35.27
2022-08-03T17:17:29.517Z,35.25
2022-08-03T17:19:58.093Z,35.21
2022-08-03T17:22:33.109Z,35.12
2022-08-03T17:25:07.545Z,35.01
2022-08-03T17:28:48.766Z,34.89
2022-08-03T17:30:22.356Z,34.94
2022-08-03T17:32:56.587Z,34.89
2022-08-03T17:35:24.983Z,34.81
2022-08-03T17:38:13.764Z,34.68
2022-08-03T17:40:48.179Z,34.64
2022-08-03T17:44:16.466Z,34.73
2022-08-03T17:46:07.145Z,34.73
2022-08-03T17:48:34.172Z,34.77
2022-08-03T17:51:15.390Z,34.74
2022-08-03T17:53:50.215Z,34.66
2022-08-03T17:56:40.368Z,34.50
2022-08-03T17:59:25.190Z,34.42
2022-08-03T18:02:59.547Z,34.34
2022-08-03T18:06:12.332Z,34.15
2022-08-03T18:08:19.498Z,34.04
2022-08-03T18:13:53.500Z,33.92
2022-08-03T18:16:39.049Z,33.74
2022-08-03T18:19:09.580Z,33.53
2022-08-03T18:22:02.887Z,33.36
2022-08-03T18:24:28.423Z,33.32
2022-08-03T18:26:57.266Z,33.28
2022-08-03T18:29:24.989Z,33.19
2022-08-03T18:32:02.517Z,33.02
2022-08-03T18:34:33.799Z,32.84
2022-08-03T18:37:01.191Z,32.82
2022-08-03T18:39:49.515Z,32.72
2022-08-03T18:42:19.432Z,32.62
2022-08-03T18:44:54.329Z,32.37
2022-08-03T18:47:51.576Z,32.13
2022-08-03T18:50:31.410Z,32.05
2022-08-03T18:53:02.665Z,31.98
2022-08-03T18:55:40.515Z,31.85
2022-08-03T18:58:56.228Z,31.56
2022-08-03T19:02:00.794Z,31.19
2022-08-03T19:04:34.236Z,31.18
2022-08-03T19:07:24.684Z,31.09
2022-08-03T19:09:54.597Z,30.81
2022-08-03T19:12:39.884Z,30.82
2022-08-03T19:15:12.358Z,30.56
2022-08-03T19:17:50.158Z,30.53
2022-08-03T19:20:30.953Z,30.50
2022-08-03T19:22:58.757Z,30.50
2022-08-03T19:25:34.535Z,30.46
2022-08-03T19:28:03.796Z,30.08
2022-08-03T19:30:37.866Z,29.95
2022-08-03T19:33:07.741Z,29.94
2022-08-03T19:35:51.473Z,29.99
2022-08-03T19:38:28.689Z,29.69
2022-08-03T19:41:01.468Z,29.32
2022-08-03T19:43:49.275Z,29.46
2022-08-03T19:46:21.368Z,29.13
2022-08-03T19:49:04.527Z,28.97
2022-08-03T19:52:01.893Z,28.90
2022-08-03T19:54:29.416Z,28.71
2022-08-03T19:56:57.476Z,28.85
2022-08-03T19:59:24.658Z,28.74
2022-08-03T20:01:53.008Z,28.58
2022-08-03T20:04:21.274Z,28.46
2022-08-03T20:06:49.632Z,28.42
2022-08-03T20:09:16.782Z,28.19
2022-08-03T20:11:45.136Z,28.21
2022-08-03T20:14:20.590Z,28.19
2022-08-03T20:16:55.929Z,27.82
2022-08-03T20:19:22.875Z,27.87
2022-08-03T20:21:53.036Z,27.62
2022-08-03T20:24:27.377Z,27.47
2022-08-03T20:26:57.819Z,27.44
2022-08-03T20:32:24.657Z,27.35
2022-08-03T20:34:51.993Z,27.07
2022-08-03T20:37:19.614Z,26.97
2022-08-03T20:39:48.278Z,26.83
2022-08-03T20:42:21.654Z,26.77
2022-08-03T20:45:06.036Z,26.75
2022-08-03T20:47:50.480Z,26.54
2022-08-03T20:50:17.576Z,26.56
2022-08-03T20:52:49.697Z,26.52
2022-08-03T20:55:16.977Z,26.53
2022-08-03T20:57:49.075Z,26.32
2022-08-03T21:00:17.734Z,26.47
2022-08-03T21:02:44.491Z,26.17
2022-08-03T21:05:11.554Z,26.07
2022-08-03T21:10:40.643Z,26.11
2022-08-03T21:12:57.105Z,34.01
2022-08-03T21:13:06.984Z,27.40
2022-08-03T21:13:14.115Z,26.00
2022-08-03T21:16:02.314Z,26.07
2022-08-03T21:18:43.165Z,26.14
2022-08-03T21:21:10.574Z,25.97
2022-08-03T21:23:45.521Z,26.07
2022-08-03T21:26:16.709Z,25.88
2022-08-03T21:28:43.818Z,25.82
2022-08-03T21:31:10.404Z,25.73
2022-08-03T21:33:37.036Z,25.59
2022-08-03T21:36:03.797Z,25.49
2022-08-03T21:38:30.546Z,25.58
2022-08-03T21:40:57.306Z,25.54
2022-08-03T21:43:23.932Z,25.56
2022-08-03T21:45:59.873Z,25.52
2022-08-03T21:48:27.365Z,25.53
2022-08-03T21:50:54.140Z,25.49
2022-08-03T21:53:20.814Z,25.52
2022-08-03T21:56:19.478Z,25.37
2022-08-03T21:58:57.117Z,25.05
2022-08-03T22:01:28.354Z,24.85
2022-08-03T22:04:05.111Z,24.85
2022-08-03T22:06:33.965Z,24.79
2022-08-03T22:09:01.059Z,24.79
2022-08-03T22:11:27.695Z,24.87
2022-08-03T22:13:54.185Z,24.79
2022-08-03T22:16:21.348Z,24.32
2022-08-03T22:18:47.964Z,24.47
2022-08-03T22:21:16.194Z,24.53
2022-08-03T22:23:55.132Z,24.36
2022-08-03T22:26:34.667Z,24.02
2022-08-03T22:29:01.840Z,24.28
2022-08-03T22:31:30.708Z,24.28
2022-08-03T22:34:14.918Z,24.28
2022-08-03T22:36:41.646Z,24.26
2022-08-03T22:39:08.148Z,24.10
2022-08-03T22:41:34.703Z,24.05
2022-08-03T22:44:04.557Z,23.97
2022-08-03T22:46:32.950Z,24.03
2022-08-03T22:49:00.577Z,24.08
2022-08-03T22:51:27.088Z,24.01
2022-08-03T22:53:53.671Z,23.87
2022-08-03T22:56:20.219Z,23.99
2022-08-03T22:58:46.678Z,23.87
2022-08-03T23:01:14.437Z,23.75
2022-08-03T23:04:01.122Z,23.70
2022-08-03T23:06:33.687Z,23.70
2022-08-03T23:09:01.902Z,23.48
2022-08-03T23:11:28.533Z,23.57
2022-08-03T23:13:56.887Z,23.64
2022-08-03T23:16:28.624Z,23.68
2022-08-03T23:18:57.820Z,23.74
2022-08-03T23:22:00.428Z,23.53
2022-08-03T23:24:24.612Z,23.55
2022-08-03T23:26:57.080Z,23.47
2022-08-03T23:29:23.816Z,23.44
2022-08-03T23:31:52.136Z,23.11
2022-08-03T23:34:37.574Z,22.94
2022-08-03T23:37:07.442Z,22.97
2022-08-03T23:39:35.059Z,23.03
2022-08-03T23:42:03.009Z,22.95
2022-08-03T23:44:30.822Z,23.04
2022-08-03T23:46:57.283Z,22.89
2022-08-03T23:49:23.778Z,22.82
2022-08-03T23:52:12.654Z,22.76
2022-08-03T23:55:13.371Z,22.87
2022-08-03T23:57:57.867Z,22.77
